sensor_id;sensor_type;location;lat;lon;timestamp;P1;durP1;ratioP1;P2;durP2;ratioP2
45420;SDS011;55462;47.042;8.292;2023-05-16T00:02:22;4.97;;;4.57;;
45420;SDS011;55462;47.042;8.292;2023-05-16T00:04:48;4.53;;;4.20;;
45420;SDS011;55462;47.042;8.292;2023-05-16T00:07:13;4.78;;;4.43;;
45420;SDS011;55462;47.042;8.292;2023-05-16T00:09:39;4.60;;;4.20;;
45420;SDS011;55462;47.042;8.292;2023-05-16T00:12:07;4.90;;;4.45;;
45420;SDS011;55462;47.042;8.292;2023-05-16T00:14:32;4.40;;;4.10;;
45420;SDS011;55462;47.042;8.292;2023-05-16T00:17:00;4.47;;;4.13;;
45420;SDS011;55462;47.042;8.292;2023-05-16T00:19:25;4.60;;;4.20;;
45420;SDS011;55462;47.042;8.292;2023-05-16T00:21:52;4.43;;;4.00;;
45420;SDS011;55462;47.042;8.292;2023-05-16T00:24:17;4.57;;;4.28;;
45420;SDS011;55462;47.042;8.292;2023-05-16T00:26:42;4.18;;;3.97;;
45420;SDS011;55462;47.042;8.292;2023-05-16T00:29:08;6.28;;;4.50;;
45420;SDS011;55462;47.042;8.292;2023-05-16T00:31:33;4.38;;;4.07;;
45420;SDS011;55462;47.042;8.292;2023-05-16T00:33:58;5.10;;;4.70;;
45420;SDS011;55462;47.042;8.292;2023-05-16T00:36:24;4.50;;;4.20;;
45420;SDS011;55462;47.042;8.292;2023-05-16T00:38:49;5.38;;;4.60;;
45420;SDS011;55462;47.042;8.292;2023-05-16T00:41:15;4.60;;;4.22;;
45420;SDS011;55462;47.042;8.292;2023-05-16T00:43:41;4.75;;;4.35;;
45420;SDS011;55462;47.042;8.292;2023-05-16T00:46:06;5.07;;;4.68;;
45420;SDS011;55462;47.042;8.292;2023-05-16T00:48:32;4.25;;;3.95;;
45420;SDS011;55462;47.042;8.292;2023-05-16T00:50:57;5.25;;;4.70;;
45420;SDS011;55462;47.042;8.292;2023-05-16T00:53:23;7.47;;;4.72;;
45420;SDS011;55462;47.042;8.292;2023-05-16T00:55:49;4.50;;;4.20;;
45420;SDS011;55462;47.042;8.292;2023-05-16T00:58:15;4.93;;;3.83;;
45420;SDS011;55462;47.042;8.292;2023-05-16T01:00:41;4.32;;;3.83;;
45420;SDS011;55462;47.042;8.292;2023-05-16T01:03:07;5.65;;;4.53;;
45420;SDS011;55462;47.042;8.292;2023-05-16T01:05:32;4.82;;;4.53;;
45420;SDS011;55462;47.042;8.292;2023-05-16T01:07:58;4.90;;;4.50;;
45420;SDS011;55462;47.042;8.292;2023-05-16T01:10:23;4.85;;;4.45;;
45420;SDS011;55462;47.042;8.292;2023-05-16T01:13:08;5.68;;;4.63;;
45420;SDS011;55462;47.042;8.292;2023-05-16T01:15:55;5.63;;;5.22;;
45420;SDS011;55462;47.042;8.292;2023-05-16T01:18:28;5.72;;;5.32;;
45420;SDS011;55462;47.042;8.292;2023-05-16T01:20:59;5.60;;;4.95;;
45420;SDS011;55462;47.042;8.292;2023-05-16T01:26:21;6.00;;;5.40;;
45420;SDS011;55462;47.042;8.292;2023-05-16T01:28:47;5.47;;;4.97;;
45420;SDS011;55462;47.042;8.292;2023-05-16T01:31:14;7.22;;;5.50;;
45420;SDS011;55462;47.042;8.292;2023-05-16T01:33:40;7.05;;;5.32;;
45420;SDS011;55462;47.042;8.292;2023-05-16T01:36:25;5.55;;;5.15;;
45420;SDS011;55462;47.042;8.292;2023-05-16T01:38:55;4.65;;;4.35;;
45420;SDS011;55462;47.042;8.292;2023-05-16T01:41:27;5.13;;;4.72;;
45420;SDS011;55462;47.042;8.292;2023-05-16T01:44:06;5.93;;;5.43;;
45420;SDS011;55462;47.042;8.292;2023-05-16T01:46:42;6.47;;;5.97;;
45420;SDS011;55462;47.042;8.292;2023-05-16T01:49:23;5.78;;;5.38;;
45420;SDS011;55462;47.042;8.292;2023-05-16T01:51:53;6.85;;;6.25;;
45420;SDS011;55462;47.042;8.292;2023-05-16T01:54:23;6.57;;;6.07;;
45420;SDS011;55462;47.042;8.292;2023-05-16T01:56:50;5.60;;;5.20;;
45420;SDS011;55462;47.042;8.292;2023-05-16T01:59:18;6.97;;;5.65;;
45420;SDS011;55462;47.042;8.292;2023-05-16T02:01:45;7.60;;;6.20;;
45420;SDS011;55462;47.042;8.292;2023-05-16T02:04:11;5.88;;;5.30;;
45420;SDS011;55462;47.042;8.292;2023-05-16T02:06:39;5.85;;;5.38;;
45420;SDS011;55462;47.042;8.292;2023-05-16T02:09:04;6.07;;;5.57;;
45420;SDS011;55462;47.042;8.292;2023-05-16T02:11:29;5.40;;;4.90;;
45420;SDS011;55462;47.042;8.292;2023-05-16T02:13:55;5.70;;;5.30;;
45420;SDS011;55462;47.042;8.292;2023-05-16T02:16:20;5.43;;;5.03;;
45420;SDS011;55462;47.042;8.292;2023-05-16T02:18:45;4.85;;;4.55;;
45420;SDS011;55462;47.042;8.292;2023-05-16T02:21:11;5.15;;;4.75;;
45420;SDS011;55462;47.042;8.292;2023-05-16T02:23:36;5.47;;;5.00;;
45420;SDS011;55462;47.042;8.292;2023-05-16T02:26:01;5.90;;;5.25;;
45420;SDS011;55462;47.042;8.292;2023-05-16T02:28:27;5.40;;;5.00;;
45420;SDS011;55462;47.042;8.292;2023-05-16T02:30:58;5.25;;;4.85;;
45420;SDS011;55462;47.042;8.292;2023-05-16T02:33:25;4.90;;;4.57;;
45420;SDS011;55462;47.042;8.292;2023-05-16T02:35:51;6.50;;;4.97;;
45420;SDS011;55462;47.042;8.292;2023-05-16T02:38:17;5.88;;;5.38;;
45420;SDS011;55462;47.042;8.292;2023-05-16T02:40:44;4.95;;;4.63;;
45420;SDS011;55462;47.042;8.292;2023-05-16T02:43:10;5.47;;;4.60;;
45420;SDS011;55462;47.042;8.292;2023-05-16T02:45:35;4.78;;;4.38;;
45420;SDS011;55462;47.042;8.292;2023-05-16T02:48:00;5.68;;;4.22;;
45420;SDS011;55462;47.042;8.292;2023-05-16T02:50:26;5.20;;;4.80;;
45420;SDS011;55462;47.042;8.292;2023-05-16T02:52:51;5.30;;;4.90;;
45420;SDS011;55462;47.042;8.292;2023-05-16T02:55:16;6.35;;;4.97;;
45420;SDS011;55462;47.042;8.292;2023-05-16T02:57:42;5.65;;;5.10;;
45420;SDS011;55462;47.042;8.292;2023-05-16T03:00:07;5.50;;;5.00;;
45420;SDS011;55462;47.042;8.292;2023-05-16T03:02:35;7.22;;;5.40;;
45420;SDS011;55462;47.042;8.292;2023-05-16T03:05:00;5.75;;;5.35;;
45420;SDS011;55462;47.042;8.292;2023-05-16T03:07:26;5.45;;;5.05;;
45420;SDS011;55462;47.042;8.292;2023-05-16T03:09:52;5.25;;;4.95;;
45420;SDS011;55462;47.042;8.292;2023-05-16T03:12:17;5.15;;;4.75;;
45420;SDS011;55462;47.042;8.292;2023-05-16T03:14:43;7.38;;;5.10;;
45420;SDS011;55462;47.042;8.292;2023-05-16T03:17:08;5.53;;;5.07;;
45420;SDS011;55462;47.042;8.292;2023-05-16T03:19:33;5.63;;;4.45;;
45420;SDS011;55462;47.042;8.292;2023-05-16T03:21:59;4.82;;;4.50;;
45420;SDS011;55462;47.042;8.292;2023-05-16T03:24:24;7.55;;;4.88;;
45420;SDS011;55462;47.042;8.292;2023-05-16T03:26:50;5.30;;;4.90;;
45420;SDS011;55462;47.042;8.292;2023-05-16T03:29:16;7.38;;;4.88;;
45420;SDS011;55462;47.042;8.292;2023-05-16T03:31:41;5.65;;;4.28;;
45420;SDS011;55462;47.042;8.292;2023-05-16T03:34:06;5.57;;;4.80;;
45420;SDS011;55462;47.042;8.292;2023-05-16T03:36:32;5.05;;;4.68;;
45420;SDS011;55462;47.042;8.292;2023-05-16T03:38:57;5.05;;;4.75;;
45420;SDS011;55462;47.042;8.292;2023-05-16T03:41:22;5.15;;;4.72;;
45420;SDS011;55462;47.042;8.292;2023-05-16T03:43:48;4.72;;;4.35;;
45420;SDS011;55462;47.042;8.292;2023-05-16T03:46:13;4.18;;;3.88;;
45420;SDS011;55462;47.042;8.292;2023-05-16T03:48:38;5.15;;;4.75;;
45420;SDS011;55462;47.042;8.292;2023-05-16T03:51:04;4.82;;;4.53;;
45420;SDS011;55462;47.042;8.292;2023-05-16T03:53:29;5.22;;;4.20;;
45420;SDS011;55462;47.042;8.292;2023-05-16T03:55:54;4.63;;;4.22;;
45420;SDS011;55462;47.042;8.292;2023-05-16T03:58:20;5.85;;;4.60;;
45420;SDS011;55462;47.042;8.292;2023-05-16T04:00:45;4.50;;;4.20;;
45420;SDS011;55462;47.042;8.292;2023-05-16T04:03:11;5.70;;;4.00;;
45420;SDS011;55462;47.042;8.292;2023-05-16T04:05:36;5.95;;;4.93;;
45420;SDS011;55462;47.042;8.292;2023-05-16T04:08:01;4.13;;;3.83;;
45420;SDS011;55462;47.042;8.292;2023-05-16T04:10:27;4.22;;;3.90;;
45420;SDS011;55462;47.042;8.292;2023-05-16T04:12:52;3.97;;;3.67;;
45420;SDS011;55462;47.042;8.292;2023-05-16T04:15:17;5.13;;;4.40;;
45420;SDS011;55462;47.042;8.292;2023-05-16T04:17:43;5.00;;;4.60;;
45420;SDS011;55462;47.042;8.292;2023-05-16T04:20:08;7.63;;;6.97;;
45420;SDS011;55462;47.042;8.292;2023-05-16T04:22:34;5.20;;;4.80;;
45420;SDS011;55462;47.042;8.292;2023-05-16T04:24:59;5.22;;;4.82;;
45420;SDS011;55462;47.042;8.292;2023-05-16T04:27:24;5.60;;;5.10;;
45420;SDS011;55462;47.042;8.292;2023-05-16T04:29:50;5.65;;;4.90;;
45420;SDS011;55462;47.042;8.292;2023-05-16T04:32:16;5.60;;;5.20;;
45420;SDS011;55462;47.042;8.292;2023-05-16T04:34:42;6.10;;;5.50;;
45420;SDS011;55462;47.042;8.292;2023-05-16T04:37:08;6.10;;;5.55;;
45420;SDS011;55462;47.042;8.292;2023-05-16T04:39:33;6.40;;;5.80;;
45420;SDS011;55462;47.042;8.292;2023-05-16T04:41:59;5.93;;;5.35;;
45420;SDS011;55462;47.042;8.292;2023-05-16T04:44:25;6.13;;;5.63;;
45420;SDS011;55462;47.042;8.292;2023-05-16T04:46:51;6.72;;;5.72;;
45420;SDS011;55462;47.042;8.292;2023-05-16T04:49:19;6.18;;;5.57;;
45420;SDS011;55462;47.042;8.292;2023-05-16T04:51:45;5.82;;;5.43;;
45420;SDS011;55462;47.042;8.292;2023-05-16T04:54:11;6.55;;;5.90;;
45420;SDS011;55462;47.042;8.292;2023-05-16T04:56:36;6.03;;;5.60;;
45420;SDS011;55462;47.042;8.292;2023-05-16T04:59:02;6.55;;;5.95;;
45420;SDS011;55462;47.042;8.292;2023-05-16T05:01:28;6.68;;;6.10;;
45420;SDS011;55462;47.042;8.292;2023-05-16T05:03:53;6.60;;;6.00;;
45420;SDS011;55462;47.042;8.292;2023-05-16T05:06:19;5.75;;;5.30;;
45420;SDS011;55462;47.042;8.292;2023-05-16T05:08:44;5.82;;;5.32;;
45420;SDS011;55462;47.042;8.292;2023-05-16T05:11:09;6.55;;;5.43;;
45420;SDS011;55462;47.042;8.292;2023-05-16T05:13:35;6.40;;;5.80;;
45420;SDS011;55462;47.042;8.292;2023-05-16T05:16:00;14.07;;;5.60;;
45420;SDS011;55462;47.042;8.292;2023-05-16T05:18:28;5.47;;;4.97;;
45420;SDS011;55462;47.042;8.292;2023-05-16T05:20:54;7.38;;;5.68;;
45420;SDS011;55462;47.042;8.292;2023-05-16T05:23:19;6.43;;;5.82;;
45420;SDS011;55462;47.042;8.292;2023-05-16T05:25:44;5.97;;;5.47;;
45420;SDS011;55462;47.042;8.292;2023-05-16T05:28:10;6.22;;;5.82;;
45420;SDS011;55462;47.042;8.292;2023-05-16T05:30:35;6.28;;;5.88;;
45420;SDS011;55462;47.042;8.292;2023-05-16T05:33:01;7.13;;;6.63;;
45420;SDS011;55462;47.042;8.292;2023-05-16T05:35:26;6.35;;;5.85;;
45420;SDS011;55462;47.042;8.292;2023-05-16T05:37:51;6.90;;;6.32;;
45420;SDS011;55462;47.042;8.292;2023-05-16T05:40:17;7.10;;;6.50;;
45420;SDS011;55462;47.042;8.292;2023-05-16T05:42:42;7.10;;;6.50;;
45420;SDS011;55462;47.042;8.292;2023-05-16T05:45:07;9.88;;;7.20;;
45420;SDS011;55462;47.042;8.292;2023-05-16T05:47:33;8.50;;;6.65;;
45420;SDS011;55462;47.042;8.292;2023-05-16T05:49:58;10.98;;;7.90;;
45420;SDS011;55462;47.042;8.292;2023-05-16T05:52:24;8.68;;;7.88;;
45420;SDS011;55462;47.042;8.292;2023-05-16T05:54:49;7.35;;;6.75;;
45420;SDS011;55462;47.042;8.292;2023-05-16T05:57:15;8.13;;;7.50;;
45420;SDS011;55462;47.042;8.292;2023-05-16T05:59:40;8.55;;;7.80;;
45420;SDS011;55462;47.042;8.292;2023-05-16T06:02:06;8.68;;;7.97;;
45420;SDS011;55462;47.042;8.292;2023-05-16T06:04:32;8.15;;;7.45;;
45420;SDS011;55462;47.042;8.292;2023-05-16T06:06:57;8.85;;;8.15;;
45420;SDS011;55462;47.042;8.292;2023-05-16T06:09:22;8.25;;;7.60;;
45420;SDS011;55462;47.042;8.292;2023-05-16T06:11:48;8.65;;;7.82;;
45420;SDS011;55462;47.042;8.292;2023-05-16T06:14:14;8.60;;;7.90;;
45420;SDS011;55462;47.042;8.292;2023-05-16T06:16:42;8.88;;;7.90;;
45420;SDS011;55462;47.042;8.292;2023-05-16T06:19:08;8.02;;;7.38;;
45420;SDS011;55462;47.042;8.292;2023-05-16T06:21:34;7.85;;;7.15;;
45420;SDS011;55462;47.042;8.292;2023-05-16T06:23:59;8.48;;;7.68;;
45420;SDS011;55462;47.042;8.292;2023-05-16T06:26:24;8.32;;;7.53;;
45420;SDS011;55462;47.042;8.292;2023-05-16T06:28:50;9.23;;;8.27;;
45420;SDS011;55462;47.042;8.292;2023-05-16T06:31:15;8.80;;;8.00;;
45420;SDS011;55462;47.042;8.292;2023-05-16T06:33:40;8.55;;;7.93;;
45420;SDS011;55462;47.042;8.292;2023-05-16T06:36:06;8.48;;;7.78;;
45420;SDS011;55462;47.042;8.292;2023-05-16T06:38:31;8.93;;;8.18;;
45420;SDS011;55462;47.042;8.292;2023-05-16T06:40:57;8.80;;;8.10;;
45420;SDS011;55462;47.042;8.292;2023-05-16T06:43:22;9.60;;;8.63;;
45420;SDS011;55462;47.042;8.292;2023-05-16T06:45:47;9.13;;;8.38;;
45420;SDS011;55462;47.042;8.292;2023-05-16T06:48:13;9.38;;;8.52;;
45420;SDS011;55462;47.042;8.292;2023-05-16T06:50:41;9.63;;;8.80;;
45420;SDS011;55462;47.042;8.292;2023-05-16T06:53:06;9.00;;;8.30;;
45420;SDS011;55462;47.042;8.292;2023-05-16T06:55:32;9.60;;;8.75;;
45420;SDS011;55462;47.042;8.292;2023-05-16T06:57:58;11.05;;;9.63;;
45420;SDS011;55462;47.042;8.292;2023-05-16T07:00:23;10.68;;;9.77;;
45420;SDS011;55462;47.042;8.292;2023-05-16T07:02:49;10.50;;;9.60;;
45420;SDS011;55462;47.042;8.292;2023-05-16T07:05:15;12.50;;;9.18;;
45420;SDS011;55462;47.042;8.292;2023-05-16T07:07:40;10.07;;;9.27;;
45420;SDS011;55462;47.042;8.292;2023-05-16T07:10:05;10.40;;;9.13;;
45420;SDS011;55462;47.042;8.292;2023-05-16T07:12:31;10.73;;;9.80;;
45420;SDS011;55462;47.042;8.292;2023-05-16T07:14:56;11.07;;;10.00;;
45420;SDS011;55462;47.042;8.292;2023-05-16T07:17:22;10.60;;;9.68;;
45420;SDS011;55462;47.042;8.292;2023-05-16T07:19:48;12.80;;;11.60;;
45420;SDS011;55462;47.042;8.292;2023-05-16T07:22:14;10.70;;;9.70;;
45420;SDS011;55462;47.042;8.292;2023-05-16T07:24:39;12.32;;;10.55;;
45420;SDS011;55462;47.042;8.292;2023-05-16T07:27:04;11.52;;;10.52;;
45420;SDS011;55462;47.042;8.292;2023-05-16T07:29:30;11.52;;;10.50;;
45420;SDS011;55462;47.042;8.292;2023-05-16T07:31:55;11.02;;;10.13;;
45420;SDS011;55462;47.042;8.292;2023-05-16T07:34:20;12.60;;;11.38;;
45420;SDS011;55462;47.042;8.292;2023-05-16T07:36:46;11.07;;;10.07;;
45420;SDS011;55462;47.042;8.292;2023-05-16T07:39:11;12.93;;;11.48;;
45420;SDS011;55462;47.042;8.292;2023-05-16T07:41:37;13.18;;;11.75;;
45420;SDS011;55462;47.042;8.292;2023-05-16T07:44:02;12.13;;;11.15;;
45420;SDS011;55462;47.042;8.292;2023-05-16T07:46:27;12.43;;;11.43;;
45420;SDS011;55462;47.042;8.292;2023-05-16T07:48:52;12.48;;;11.38;;
45420;SDS011;55462;47.042;8.292;2023-05-16T07:51:18;12.85;;;11.73;;
45420;SDS011;55462;47.042;8.292;2023-05-16T07:53:43;12.82;;;11.55;;
45420;SDS011;55462;47.042;8.292;2023-05-16T07:56:08;12.10;;;10.93;;
45420;SDS011;55462;47.042;8.292;2023-05-16T07:58:34;12.32;;;11.32;;
45420;SDS011;55462;47.042;8.292;2023-05-16T08:00:59;13.48;;;12.18;;
45420;SDS011;55462;47.042;8.292;2023-05-16T08:03:24;13.25;;;12.05;;
45420;SDS011;55462;47.042;8.292;2023-05-16T08:05:50;12.57;;;11.50;;
45420;SDS011;55462;47.042;8.292;2023-05-16T08:08:15;13.48;;;12.27;;
45420;SDS011;55462;47.042;8.292;2023-05-16T08:10:41;14.10;;;12.73;;
45420;SDS011;55462;47.042;8.292;2023-05-16T08:13:06;13.52;;;12.20;;
45420;SDS011;55462;47.042;8.292;2023-05-16T08:15:32;14.27;;;12.73;;
45420;SDS011;55462;47.042;8.292;2023-05-16T08:17:57;13.05;;;11.95;;
45420;SDS011;55462;47.042;8.292;2023-05-16T08:20:23;13.82;;;12.35;;
45420;SDS011;55462;47.042;8.292;2023-05-16T08:22:48;14.32;;;13.07;;
45420;SDS011;55462;47.042;8.292;2023-05-16T08:25:14;17.02;;;13.52;;
45420;SDS011;55462;47.042;8.292;2023-05-16T08:27:39;14.25;;;12.95;;
45420;SDS011;55462;47.042;8.292;2023-05-16T08:30:05;16.27;;;14.55;;
45420;SDS011;55462;47.042;8.292;2023-05-16T08:32:30;15.70;;;14.10;;
45420;SDS011;55462;47.042;8.292;2023-05-16T08:34:56;16.70;;;15.10;;
45420;SDS011;55462;47.042;8.292;2023-05-16T08:37:21;16.17;;;14.57;;
45420;SDS011;55462;47.042;8.292;2023-05-16T08:39:46;17.40;;;14.85;;
45420;SDS011;55462;47.042;8.292;2023-05-16T08:42:12;15.82;;;14.38;;
45420;SDS011;55462;47.042;8.292;2023-05-16T08:44:37;16.40;;;14.82;;
45420;SDS011;55462;47.042;8.292;2023-05-16T08:47:06;17.15;;;15.52;;
45420;SDS011;55462;47.042;8.292;2023-05-16T08:49:38;16.00;;;14.40;;
45420;SDS011;55462;47.042;8.292;2023-05-16T08:52:05;18.00;;;16.35;;
45420;SDS011;55462;47.042;8.292;2023-05-16T08:54:32;18.20;;;16.50;;
45420;SDS011;55462;47.042;8.292;2023-05-16T08:56:58;16.80;;;15.40;;
45420;SDS011;55462;47.042;8.292;2023-05-16T08:59:24;19.85;;;17.63;;
45420;SDS011;55462;47.042;8.292;2023-05-16T09:01:50;18.95;;;16.92;;
45420;SDS011;55462;47.042;8.292;2023-05-16T09:04:15;20.02;;;18.05;;
45420;SDS011;55462;47.042;8.292;2023-05-16T09:06:41;18.58;;;16.85;;
45420;SDS011;55462;47.042;8.292;2023-05-16T09:09:06;19.42;;;17.52;;
45420;SDS011;55462;47.042;8.292;2023-05-16T09:11:34;21.02;;;18.75;;
45420;SDS011;55462;47.042;8.292;2023-05-16T09:14:00;24.75;;;19.13;;
45420;SDS011;55462;47.042;8.292;2023-05-16T09:16:25;20.30;;;18.38;;
45420;SDS011;55462;47.042;8.292;2023-05-16T09:18:54;20.40;;;18.45;;
45420;SDS011;55462;47.042;8.292;2023-05-16T09:21:21;20.35;;;18.42;;
45420;SDS011;55462;47.042;8.292;2023-05-16T09:23:47;19.02;;;17.13;;
45420;SDS011;55462;47.042;8.292;2023-05-16T09:26:13;19.58;;;17.55;;
45420;SDS011;55462;47.042;8.292;2023-05-16T09:28:39;20.77;;;18.67;;
45420;SDS011;55462;47.042;8.292;2023-05-16T09:33:46;20.60;;;18.70;;
45420;SDS011;55462;47.042;8.292;2023-05-16T09:36:14;19.67;;;17.77;;
45420;SDS011;55462;47.042;8.292;2023-05-16T09:38:39;20.80;;;18.58;;
45420;SDS011;55462;47.042;8.292;2023-05-16T09:41:05;20.45;;;18.40;;
45420;SDS011;55462;47.042;8.292;2023-05-16T09:43:30;19.80;;;17.80;;
45420;SDS011;55462;47.042;8.292;2023-05-16T09:45:57;18.75;;;16.98;;
45420;SDS011;55462;47.042;8.292;2023-05-16T09:48:23;19.50;;;17.70;;
45420;SDS011;55462;47.042;8.292;2023-05-16T09:50:52;19.45;;;17.65;;
45420;SDS011;55462;47.042;8.292;2023-05-16T09:53:28;18.98;;;17.27;;
45420;SDS011;55462;47.042;8.292;2023-05-16T09:58:31;17.98;;;16.27;;
45420;SDS011;55462;47.042;8.292;2023-05-16T10:00:57;18.17;;;16.25;;
45420;SDS011;55462;47.042;8.292;2023-05-16T10:03:23;18.45;;;16.70;;
45420;SDS011;55462;47.042;8.292;2023-05-16T10:05:49;18.52;;;16.83;;
45420;SDS011;55462;47.042;8.292;2023-05-16T10:08:16;19.35;;;17.55;;
45420;SDS011;55462;47.042;8.292;2023-05-16T10:10:45;19.83;;;17.63;;
45420;SDS011;55462;47.042;8.292;2023-05-16T10:13:11;18.95;;;17.10;;
45420;SDS011;55462;47.042;8.292;2023-05-16T10:15:37;18.00;;;16.25;;
45420;SDS011;55462;47.042;8.292;2023-05-16T10:18:03;19.48;;;17.55;;
45420;SDS011;55462;47.042;8.292;2023-05-16T10:20:28;19.80;;;17.85;;
45420;SDS011;55462;47.042;8.292;2023-05-16T10:22:54;20.38;;;18.38;;
45420;SDS011;55462;47.042;8.292;2023-05-16T10:27:58;20.75;;;18.75;;
45420;SDS011;55462;47.042;8.292;2023-05-16T10:30:24;20.88;;;18.70;;
45420;SDS011;55462;47.042;8.292;2023-05-16T10:32:49;21.45;;;19.10;;
45420;SDS011;55462;47.042;8.292;2023-05-16T10:35:15;23.55;;;20.45;;
45420;SDS011;55462;47.042;8.292;2023-05-16T10:37:41;23.17;;;20.77;;
45420;SDS011;55462;47.042;8.292;2023-05-16T10:40:06;23.88;;;19.92;;
45420;SDS011;55462;47.042;8.292;2023-05-16T10:42:32;23.33;;;20.90;;
45420;SDS011;55462;47.042;8.292;2023-05-16T10:45:17;23.17;;;20.77;;
45420;SDS011;55462;47.042;8.292;2023-05-16T10:48:17;24.83;;;22.25;;
45420;SDS011;55462;47.042;8.292;2023-05-16T10:53:13;26.20;;;23.10;;
45420;SDS011;55462;47.042;8.292;2023-05-16T11:01:21;27.38;;;23.50;;
45420;SDS011;55462;47.042;8.292;2023-05-16T11:06:26;29.70;;;23.98;;
45420;SDS011;55462;47.042;8.292;2023-05-16T11:14:34;13.38;;;12.05;;
45420;SDS011;55462;47.042;8.292;2023-05-16T11:19:34;15.63;;;13.98;;
45420;SDS011;55462;47.042;8.292;2023-05-16T11:22:06;15.13;;;13.48;;
45420;SDS011;55462;47.042;8.292;2023-05-16T11:24:56;16.85;;;15.05;;
45420;SDS011;55462;47.042;8.292;2023-05-16T11:29:48;15.60;;;14.02;;
45420;SDS011;55462;47.042;8.292;2023-05-16T11:32:13;17.25;;;15.45;;
45420;SDS011;55462;47.042;8.292;2023-05-16T11:34:43;17.52;;;14.93;;
45420;SDS011;55462;47.042;8.292;2023-05-16T11:37:09;15.80;;;14.13;;
45420;SDS011;55462;47.042;8.292;2023-05-16T11:39:35;16.60;;;14.90;;
45420;SDS011;55462;47.042;8.292;2023-05-16T11:42:01;14.93;;;13.43;;
45420;SDS011;55462;47.042;8.292;2023-05-16T11:44:27;17.25;;;12.75;;
45420;SDS011;55462;47.042;8.292;2023-05-16T11:46:52;16.58;;;14.93;;
45420;SDS011;55462;47.042;8.292;2023-05-16T11:49:18;14.82;;;13.07;;
45420;SDS011;55462;47.042;8.292;2023-05-16T11:51:43;14.07;;;12.60;;
45420;SDS011;55462;47.042;8.292;2023-05-16T11:54:09;15.43;;;12.85;;
45420;SDS011;55462;47.042;8.292;2023-05-16T11:56:34;15.50;;;14.00;;
45420;SDS011;55462;47.042;8.292;2023-05-16T11:59:00;14.25;;;12.85;;
45420;SDS011;55462;47.042;8.292;2023-05-16T12:01:36;12.90;;;11.60;;
45420;SDS011;55462;47.042;8.292;2023-05-16T12:04:12;13.07;;;11.85;;
45420;SDS011;55462;47.042;8.292;2023-05-16T12:06:39;10.77;;;9.88;;
45420;SDS011;55462;47.042;8.292;2023-05-16T12:09:10;10.98;;;9.98;;
45420;SDS011;55462;47.042;8.292;2023-05-16T12:11:40;9.52;;;8.73;;
45420;SDS011;55462;47.042;8.292;2023-05-16T12:14:07;10.82;;;9.73;;
45420;SDS011;55462;47.042;8.292;2023-05-16T12:16:34;9.93;;;9.02;;
45420;SDS011;55462;47.042;8.292;2023-05-16T12:19:04;10.18;;;9.27;;
45420;SDS011;55462;47.042;8.292;2023-05-16T12:21:30;9.07;;;8.30;;
45420;SDS011;55462;47.042;8.292;2023-05-16T12:23:56;10.07;;;8.98;;
45420;SDS011;55462;47.042;8.292;2023-05-16T12:26:29;10.70;;;9.80;;
45420;SDS011;55462;47.042;8.292;2023-05-16T12:28:59;10.57;;;9.57;;
45420;SDS011;55462;47.042;8.292;2023-05-16T12:31:28;10.93;;;10.00;;
45420;SDS011;55462;47.042;8.292;2023-05-16T12:33:55;11.60;;;10.60;;
45420;SDS011;55462;47.042;8.292;2023-05-16T12:36:21;11.20;;;10.15;;
45420;SDS011;55462;47.042;8.292;2023-05-16T12:38:48;11.23;;;10.27;;
45420;SDS011;55462;47.042;8.292;2023-05-16T12:41:20;10.60;;;9.70;;
45420;SDS011;55462;47.042;8.292;2023-05-16T12:43:46;9.00;;;8.23;;
45420;SDS011;55462;47.042;8.292;2023-05-16T12:46:15;6.20;;;5.70;;
45420;SDS011;55462;47.042;8.292;2023-05-16T12:48:40;5.55;;;5.03;;
45420;SDS011;55462;47.042;8.292;2023-05-16T12:51:10;6.45;;;5.45;;
45420;SDS011;55462;47.042;8.292;2023-05-16T12:53:41;6.00;;;5.50;;
45420;SDS011;55462;47.042;8.292;2023-05-16T12:56:11;5.30;;;4.90;;
45420;SDS011;55462;47.042;8.292;2023-05-16T12:58:37;6.75;;;5.40;;
45420;SDS011;55462;47.042;8.292;2023-05-16T13:01:03;5.10;;;4.70;;
45420;SDS011;55462;47.042;8.292;2023-05-16T13:03:29;4.38;;;4.07;;
45420;SDS011;55462;47.042;8.292;2023-05-16T13:05:55;3.42;;;3.20;;
45420;SDS011;55462;47.042;8.292;2023-05-16T13:08:20;4.05;;;3.80;;
45420;SDS011;55462;47.042;8.292;2023-05-16T13:10:46;4.13;;;3.83;;
45420;SDS011;55462;47.042;8.292;2023-05-16T13:13:11;5.55;;;4.65;;
45420;SDS011;55462;47.042;8.292;2023-05-16T13:15:37;3.97;;;3.67;;
45420;SDS011;55462;47.042;8.292;2023-05-16T13:18:03;4.18;;;3.88;;
45420;SDS011;55462;47.042;8.292;2023-05-16T13:20:28;4.00;;;3.70;;
45420;SDS011;55462;47.042;8.292;2023-05-16T13:22:54;3.20;;;3.00;;
45420;SDS011;55462;47.042;8.292;2023-05-16T13:25:20;3.40;;;3.20;;
45420;SDS011;55462;47.042;8.292;2023-05-16T13:27:45;3.08;;;2.88;;
45420;SDS011;55462;47.042;8.292;2023-05-16T13:30:13;2.67;;;2.47;;
45420;SDS011;55462;47.042;8.292;2023-05-16T13:32:38;2.70;;;2.50;;
45420;SDS011;55462;47.042;8.292;2023-05-16T13:35:04;3.40;;;3.10;;
45420;SDS011;55462;47.042;8.292;2023-05-16T13:37:29;4.82;;;2.97;;
45420;SDS011;55462;47.042;8.292;2023-05-16T13:39:55;4.28;;;3.97;;
45420;SDS011;55462;47.042;8.292;2023-05-16T13:42:21;4.57;;;4.18;;
45420;SDS011;55462;47.042;8.292;2023-05-16T13:44:46;4.50;;;4.10;;
45420;SDS011;55462;47.042;8.292;2023-05-16T13:47:11;7.55;;;4.82;;
45420;SDS011;55462;47.042;8.292;2023-05-16T13:49:37;3.80;;;3.53;;
45420;SDS011;55462;47.042;8.292;2023-05-16T13:52:03;5.00;;;4.60;;
45420;SDS011;55462;47.042;8.292;2023-05-16T13:54:28;5.28;;;4.78;;
45420;SDS011;55462;47.042;8.292;2023-05-16T13:56:54;6.25;;;5.55;;
45420;SDS011;55462;47.042;8.292;2023-05-16T13:59:19;7.15;;;6.45;;
45420;SDS011;55462;47.042;8.292;2023-05-16T14:01:45;7.50;;;6.78;;
45420;SDS011;55462;47.042;8.292;2023-05-16T14:04:10;7.32;;;6.70;;
45420;SDS011;55462;47.042;8.292;2023-05-16T14:06:35;9.70;;;8.23;;
45420;SDS011;55462;47.042;8.292;2023-05-16T14:09:01;8.60;;;7.90;;
45420;SDS011;55462;47.042;8.292;2023-05-16T14:11:27;9.45;;;8.52;;
45420;SDS011;55462;47.042;8.292;2023-05-16T14:13:52;7.97;;;7.35;;
45420;SDS011;55462;47.042;8.292;2023-05-16T14:16:18;7.40;;;6.70;;
45420;SDS011;55462;47.042;8.292;2023-05-16T14:18:43;10.55;;;7.93;;
45420;SDS011;55462;47.042;8.292;2023-05-16T14:21:09;7.88;;;7.28;;
45420;SDS011;55462;47.042;8.292;2023-05-16T14:23:34;8.43;;;7.57;;
45420;SDS011;55462;47.042;8.292;2023-05-16T14:26:00;9.95;;;7.38;;
45420;SDS011;55462;47.042;8.292;2023-05-16T14:28:26;8.88;;;8.18;;
45420;SDS011;55462;47.042;8.292;2023-05-16T14:30:52;9.52;;;8.73;;
45420;SDS011;55462;47.042;8.292;2023-05-16T14:33:17;9.60;;;8.80;;
45420;SDS011;55462;47.042;8.292;2023-05-16T14:35:42;9.98;;;9.05;;
45420;SDS011;55462;47.042;8.292;2023-05-16T14:38:07;10.23;;;9.30;;
45420;SDS011;55462;47.042;8.292;2023-05-16T14:40:33;10.05;;;9.15;;
45420;SDS011;55462;47.042;8.292;2023-05-16T14:42:59;11.50;;;10.48;;
45420;SDS011;55462;47.042;8.292;2023-05-16T14:45:24;11.25;;;9.68;;
45420;SDS011;55462;47.042;8.292;2023-05-16T14:47:50;10.75;;;9.77;;
45420;SDS011;55462;47.042;8.292;2023-05-16T14:50:16;11.25;;;10.15;;
45420;SDS011;55462;47.042;8.292;2023-05-16T14:52:41;12.07;;;9.85;;
45420;SDS011;55462;47.042;8.292;2023-05-16T14:55:07;11.35;;;10.25;;
45420;SDS011;55462;47.042;8.292;2023-05-16T14:57:32;10.77;;;9.80;;
45420;SDS011;55462;47.042;8.292;2023-05-16T14:59:58;11.02;;;10.02;;
45420;SDS011;55462;47.042;8.292;2023-05-16T15:02:23;11.07;;;10.07;;
45420;SDS011;55462;47.042;8.292;2023-05-16T15:04:50;13.70;;;10.98;;
45420;SDS011;55462;47.042;8.292;2023-05-16T15:07:16;11.35;;;10.25;;